createdAt,value
2023-05-23T00:02:26.102Z,9.02
2023-05-23T00:04:58.698Z,9.68
2023-05-23T00:07:26.527Z,9.23
2023-05-23T00:09:53.724Z,9.40
2023-05-23T00:12:21.087Z,9.20
2023-05-23T00:14:48.315Z,8.82
2023-05-23T00:17:17.820Z,8.93
2023-05-23T00:19:45.846Z,8.95
2023-05-23T00:22:13.559Z,9.43
2023-05-23T00:24:40.851Z,9.63
2023-05-23T00:27:08.113Z,8.93
2023-05-23T00:29:35.368Z,9.73
2023-05-23T00:32:02.589Z,8.98
2023-05-23T00:34:29.874Z,9.02
2023-05-23T00:36:58.454Z,8.88
2023-05-23T00:39:25.725Z,9.10
2023-05-23T00:41:53.312Z,8.48
2023-05-23T00:44:21.679Z,9.00
2023-05-23T00:46:53.922Z,8.63
2023-05-23T00:49:21.479Z,8.85
2023-05-23T00:51:51.946Z,8.18
2023-05-23T00:54:24.928Z,9.00
2023-05-23T00:56:52.189Z,8.73
2023-05-23T00:59:21.645Z,8.93
2023-05-23T01:01:51.112Z,7.78
2023-05-23T01:04:20.221Z,8.98
2023-05-23T01:06:49.435Z,8.63
2023-05-23T01:12:43.834Z,8.55
2023-05-23T01:15:15.474Z,8.45
2023-05-23T01:17:58.802Z,9.48
2023-05-23T01:20:45.418Z,8.75
2023-05-23T01:23:41.769Z,9.60
2023-05-23T01:26:08.906Z,9.68
2023-05-23T01:28:42.071Z,9.27
2023-05-23T01:31:11.861Z,9.18
2023-05-23T01:33:41.412Z,9.82
2023-05-23T01:36:09.685Z,10.10
2023-05-23T01:38:37.037Z,9.80
2023-05-23T01:41:04.264Z,9.95
2023-05-23T01:43:31.582Z,9.30
2023-05-23T01:46:00.468Z,9.40
2023-05-23T01:48:29.504Z,9.98
2023-05-23T01:50:57.382Z,10.20
2023-05-23T01:53:25.746Z,9.27
2023-05-23T01:55:54.132Z,8.73
2023-05-23T01:58:21.771Z,9.40
2023-05-23T02:00:49.120Z,10.73
2023-05-23T02:03:16.939Z,10.32
2023-05-23T02:05:44.457Z,9.60
2023-05-23T02:08:11.737Z,10.13
2023-05-23T02:10:38.997Z,9.55
2023-05-23T02:13:06.292Z,10.02
2023-05-23T02:15:33.505Z,9.80
2023-05-23T02:18:02.412Z,10.80
2023-05-23T02:20:29.650Z,9.55
2023-05-23T02:22:56.779Z,9.20
2023-05-23T02:25:25.428Z,9.57
2023-05-23T02:27:52.666Z,9.57
2023-05-23T02:30:19.791Z,9.80
2023-05-23T02:32:47.774Z,9.32
2023-05-23T02:35:15.673Z,10.00
2023-05-23T02:37:42.986Z,9.25
2023-05-23T02:40:10.829Z,9.48
2023-05-23T02:42:38.210Z,9.50
2023-05-23T02:45:05.843Z,9.23
2023-05-23T02:47:33.103Z,9.60
2023-05-23T02:50:00.464Z,9.50
2023-05-23T02:52:27.694Z,9.48
2023-05-23T02:54:54.929Z,9.43
2023-05-23T02:57:22.144Z,9.85
2023-05-23T02:59:49.280Z,8.85
2023-05-23T03:02:16.656Z,11.60
2023-05-23T03:04:43.867Z,10.93
2023-05-23T03:07:20.584Z,10.85
2023-05-23T03:09:54.523Z,10.23
2023-05-23T03:12:21.639Z,10.70
2023-05-23T03:14:48.814Z,11.02
2023-05-23T03:17:16.346Z,9.88
2023-05-23T03:19:43.555Z,10.70
2023-05-23T03:22:10.719Z,10.18
2023-05-23T03:24:37.841Z,10.45
2023-05-23T03:27:05.153Z,10.35
2023-05-23T03:29:32.918Z,10.13
2023-05-23T03:32:00.204Z,10.05
2023-05-23T03:34:27.518Z,10.38
2023-05-23T03:36:54.672Z,10.10
2023-05-23T03:39:21.946Z,10.55
2023-05-23T03:41:49.054Z,10.38
2023-05-23T03:44:16.305Z,10.23
2023-05-23T03:46:43.491Z,9.90
2023-05-23T03:49:10.676Z,10.20
2023-05-23T03:51:37.845Z,9.75
2023-05-23T03:54:04.955Z,9.90
2023-05-23T03:56:32.036Z,8.85
2023-05-23T03:58:59.154Z,9.07
2023-05-23T04:01:26.271Z,9.32
2023-05-23T04:03:53.863Z,8.65
2023-05-23T04:06:22.971Z,7.68
2023-05-23T04:08:50.106Z,7.88
2023-05-23T04:11:18.333Z,8.35
2023-05-23T04:13:47.300Z,7.57
2023-05-23T04:16:14.644Z,7.95
2023-05-23T04:18:43.668Z,7.97
2023-05-23T04:21:11.866Z,7.82
2023-05-23T04:23:39.182Z,7.72
2023-05-23T04:26:06.520Z,7.30
2023-05-23T04:28:35.073Z,7.57
2023-05-23T04:31:03.468Z,7.63
2023-05-23T04:33:30.833Z,8.13
2023-05-23T04:35:58.136Z,7.78
2023-05-23T04:38:27.979Z,7.38
2023-05-23T04:40:55.630Z,7.05
2023-05-23T04:43:26.756Z,6.80
2023-05-23T04:45:54.666Z,6.20
2023-05-23T04:48:22.169Z,7.15
2023-05-23T04:50:51.341Z,6.78
2023-05-23T04:53:18.879Z,7.03
2023-05-23T04:55:46.402Z,6.43
2023-05-23T04:58:13.881Z,6.65
2023-05-23T05:00:41.351Z,6.00
2023-05-23T05:03:10.117Z,5.60
2023-05-23T05:05:37.570Z,5.93
2023-05-23T05:08:04.944Z,5.90
2023-05-23T05:10:32.103Z,5.80
2023-05-23T05:12:59.445Z,5.85
2023-05-23T05:15:26.599Z,5.47
2023-05-23T05:17:54.749Z,5.38
2023-05-23T05:20:22.723Z,5.60
2023-05-23T05:22:56.839Z,5.93
2023-05-23T05:25:24.590Z,6.03
2023-05-23T05:27:52.997Z,5.43
2023-05-23T05:30:20.513Z,5.32
2023-05-23T05:32:48.631Z,5.45
2023-05-23T05:35:17.154Z,5.15
2023-05-23T05:37:44.457Z,5.03
2023-05-23T05:40:13.466Z,5.65
2023-05-23T05:42:40.678Z,4.93
2023-05-23T05:45:08.182Z,4.50
2023-05-23T05:47:35.430Z,5.47
2023-05-23T05:50:03.692Z,5.75
2023-05-23T05:52:31.097Z,5.45
2023-05-23T05:54:58.296Z,6.80
2023-05-23T05:57:25.440Z,6.55
2023-05-23T05:59:52.652Z,7.35
2023-05-23T06:02:19.773Z,7.90
2023-05-23T06:04:47.647Z,9.05
2023-05-23T06:07:14.912Z,9.00
2023-05-23T06:09:42.313Z,6.82
2023-05-23T06:12:09.731Z,6.45
2023-05-23T06:14:36.928Z,5.93
2023-05-23T06:17:04.745Z,6.30
2023-05-23T06:19:32.118Z,6.43
2023-05-23T06:21:59.355Z,6.40
2023-05-23T06:24:26.509Z,6.28
2023-05-23T06:26:53.737Z,5.85
2023-05-23T06:29:20.996Z,6.70
2023-05-23T06:31:48.248Z,6.30
2023-05-23T06:34:17.184Z,6.13
2023-05-23T06:36:44.423Z,6.45
2023-05-23T06:39:11.699Z,6.30
2023-05-23T06:41:40.011Z,5.25
2023-05-23T06:44:07.242Z,5.22
2023-05-23T06:46:34.411Z,5.65
2023-05-23T06:49:13.693Z,5.63
2023-05-23T06:51:42.120Z,4.85
2023-05-23T06:54:09.430Z,5.05
2023-05-23T06:56:36.628Z,5.47
2023-05-23T06:59:03.905Z,5.30
2023-05-23T07:01:31.289Z,4.55
2023-05-23T07:03:58.706Z,4.85
2023-05-23T07:06:27.901Z,5.05
2023-05-23T07:08:55.194Z,4.65
2023-05-23T07:11:23.012Z,4.90
2023-05-23T07:13:50.546Z,4.80
2023-05-23T07:16:17.820Z,5.65
2023-05-23T07:18:45.023Z,4.78
2023-05-23T07:21:12.230Z,4.53
2023-05-23T07:23:40.984Z,5.18
2023-05-23T07:26:09.982Z,4.70
2023-05-23T07:28:37.774Z,4.97
2023-05-23T07:31:05.210Z,4.90
2023-05-23T07:33:34.682Z,4.90
2023-05-23T07:36:02.075Z,5.60
2023-05-23T07:38:29.415Z,5.28
2023-05-23T07:41:09.986Z,4.47
2023-05-23T07:43:38.596Z,4.80
2023-05-23T07:46:05.917Z,4.72
2023-05-23T07:48:33.488Z,4.40
2023-05-23T07:51:01.473Z,5.47
2023-05-23T07:53:28.733Z,4.07
2023-05-23T07:55:56.825Z,4.15
2023-05-23T07:58:24.132Z,4.13
2023-05-23T08:00:52.979Z,3.88
2023-05-23T08:03:20.775Z,4.40
2023-05-23T08:05:47.986Z,4.13
2023-05-23T08:08:15.101Z,4.57
2023-05-23T08:10:42.590Z,3.55
2023-05-23T08:13:10.684Z,4.05
2023-05-23T08:15:38.064Z,4.00
2023-05-23T08:18:05.751Z,4.43
2023-05-23T08:20:33.055Z,4.22
2023-05-23T08:23:03.479Z,4.40
2023-05-23T08:25:31.183Z,3.78
2023-05-23T08:27:59.720Z,4.05
2023-05-23T08:30:28.388Z,3.97
2023-05-23T08:32:56.917Z,4.20
2023-05-23T08:35:24.614Z,4.00
2023-05-23T08:37:52.596Z,4.05
2023-05-23T08:40:22.268Z,3.78
2023-05-23T08:42:50.808Z,4.25
2023-05-23T08:45:19.538Z,4.78
2023-05-23T08:47:47.639Z,4.25
2023-05-23T08:50:18.114Z,4.05
2023-05-23T08:52:58.413Z,4.07
2023-05-23T08:55:28.241Z,4.60
2023-05-23T08:57:56.603Z,4.40
2023-05-23T09:00:25.521Z,3.95
2023-05-23T09:02:54.745Z,4.05
2023-05-23T09:05:22.833Z,4.05
2023-05-23T09:07:51.303Z,4.28
2023-05-23T09:10:22.852Z,4.10
2023-05-23T09:12:50.617Z,4.97
2023-05-23T09:15:17.805Z,4.32
2023-05-23T09:17:45.804Z,4.50
2023-05-23T09:20:18.229Z,4.57
2023-05-23T09:22:49.272Z,4.10
2023-05-23T09:25:16.775Z,4.30
2023-05-23T09:27:47.545Z,4.00
2023-05-23T09:30:15.987Z,3.72
2023-05-23T09:32:44.929Z,4.50
2023-05-23T09:35:14.448Z,3.75
2023-05-23T09:37:47.151Z,4.00
2023-05-23T09:40:16.000Z,4.03
2023-05-23T09:42:48.557Z,3.85
2023-05-23T09:47:52.019Z,3.97
2023-05-23T09:50:20.257Z,3.85
2023-05-23T09:52:48.227Z,4.25
2023-05-23T09:55:15.728Z,3.90
2023-05-23T09:57:44.363Z,4.30
2023-05-23T10:00:14.044Z,4.40
2023-05-23T10:03:15.362Z,3.95
2023-05-23T10:05:47.832Z,3.58
2023-05-23T10:08:20.687Z,4.72
2023-05-23T10:10:57.119Z,4.70
2023-05-23T10:13:34.383Z,4.05
2023-05-23T10:16:19.637Z,4.45
2023-05-23T10:18:55.817Z,3.60
2023-05-23T10:21:36.391Z,5.18
2023-05-23T10:24:07.534Z,5.00
2023-05-23T10:26:36.109Z,4.60
2023-05-23T10:29:03.728Z,4.00
2023-05-23T10:31:32.023Z,3.90
2023-05-23T10:34:09.388Z,4.15
2023-05-23T10:37:08.199Z,3.53
2023-05-23T10:39:58.100Z,3.25
2023-05-23T10:42:31.172Z,3.90
2023-05-23T10:45:17.560Z,4.05
2023-05-23T10:47:45.573Z,4.15
2023-05-23T10:50:17.533Z,3.50
2023-05-23T10:52:45.936Z,3.80
2023-05-23T10:55:19.907Z,3.85
2023-05-23T10:57:48.468Z,3.45
2023-05-23T11:00:17.553Z,4.13
2023-05-23T11:02:55.870Z,4.07
2023-05-23T11:05:27.075Z,4.40
2023-05-23T11:08:14.313Z,4.22
2023-05-23T11:10:59.757Z,4.00
2023-05-23T11:13:47.776Z,3.42
2023-05-23T11:16:41.913Z,3.35
2023-05-23T11:19:23.254Z,3.72
2023-05-23T11:22:01.397Z,3.63
2023-05-23T11:24:57.575Z,3.70
2023-05-23T11:27:40.985Z,3.80
2023-05-23T11:30:09.070Z,3.40
2023-05-23T11:32:37.753Z,3.22
2023-05-23T11:35:08.106Z,3.03
2023-05-23T11:37:36.240Z,3.40
2023-05-23T11:40:29.769Z,3.67
2023-05-23T11:42:57.805Z,3.58
2023-05-23T11:45:26.056Z,3.22
2023-05-23T11:47:53.630Z,3.40
2023-05-23T11:50:21.134Z,3.88
2023-05-23T11:52:52.184Z,3.58
2023-05-23T11:55:23.500Z,3.23
2023-05-23T11:57:52.013Z,3.37
2023-05-23T12:00:19.833Z,3.22
2023-05-23T12:02:50.681Z,3.15
2023-05-23T12:05:18.634Z,3.10
2023-05-23T12:07:48.375Z,3.20
2023-05-23T12:10:22.772Z,3.20
2023-05-23T12:12:52.226Z,3.55
2023-05-23T12:15:19.532Z,3.00
2023-05-23T12:17:47.448Z,3.10
2023-05-23T12:20:14.792Z,2.85
2023-05-23T12:22:43.244Z,2.97
2023-05-23T12:25:13.726Z,2.92
2023-05-23T12:27:44.394Z,3.10
2023-05-23T12:30:16.687Z,3.65
2023-05-23T12:32:47.172Z,2.70
2023-05-23T12:35:16.244Z,2.92
2023-05-23T12:37:47.118Z,3.00
2023-05-23T12:40:18.921Z,2.97
2023-05-23T12:42:53.281Z,2.50
2023-05-23T12:45:25.192Z,2.97
2023-05-23T12:47:54.189Z,2.83
2023-05-23T12:50:21.984Z,2.58
2023-05-23T12:52:49.298Z,2.97
2023-05-23T12:55:16.639Z,2.78
2023-05-23T12:57:44.536Z,3.05
2023-05-23T13:00:12.773Z,2.90
2023-05-23T13:02:40.198Z,3.13
2023-05-23T13:05:08.223Z,3.35
2023-05-23T13:07:35.599Z,2.83
2023-05-23T13:10:03.158Z,2.90
2023-05-23T13:12:30.961Z,2.92
2023-05-23T13:14:59.030Z,2.90
2023-05-23T13:17:27.597Z,2.80
2023-05-23T13:19:54.785Z,2.63
2023-05-23T13:22:22.021Z,2.80
2023-05-23T13:24:49.158Z,3.20
2023-05-23T13:27:16.336Z,2.78
2023-05-23T13:29:44.314Z,3.28
2023-05-23T13:32:11.739Z,2.80
2023-05-23T13:34:39.048Z,2.50
2023-05-23T13:37:06.344Z,3.17
2023-05-23T13:39:33.736Z,3.38
2023-05-23T13:42:01.013Z,2.60
2023-05-23T13:44:28.493Z,2.92
2023-05-23T13:46:58.692Z,2.80
2023-05-23T13:49:26.179Z,2.50
2023-05-23T13:51:53.462Z,3.13
2023-05-23T13:54:20.677Z,2.70
2023-05-23T13:56:47.929Z,2.75
2023-05-23T13:59:19.373Z,2.72
2023-05-23T14:01:46.846Z,2.72
2023-05-23T14:04:14.240Z,3.05
2023-05-23T14:06:41.470Z,2.80
2023-05-23T14:09:09.251Z,3.00
2023-05-23T14:11:36.427Z,3.90
2023-05-23T14:14:03.928Z,2.97
2023-05-23T14:16:32.027Z,2.70
2023-05-23T14:18:59.406Z,2.40
2023-05-23T14:21:26.713Z,2.92
2023-05-23T14:23:54.155Z,2.75
2023-05-23T14:26:22.599Z,2.60
2023-05-23T14:28:49.847Z,3.03
2023-05-23T14:31:17.148Z,2.70
2023-05-23T14:33:44.572Z,2.75
2023-05-23T14:36:11.845Z,2.70
2023-05-23T14:38:39.859Z,2.60
2023-05-23T14:41:07.164Z,3.05
2023-05-23T14:43:34.573Z,2.85
2023-05-23T14:46:02.905Z,3.00
2023-05-23T14:48:33.927Z,2.67
2023-05-23T14:51:02.360Z,2.72
2023-05-23T14:53:42.269Z,2.50
2023-05-23T14:56:13.133Z,2.60
2023-05-23T14:58:54.182Z,2.30
2023-05-23T15:01:28.355Z,3.03
2023-05-23T15:03:56.534Z,2.70
2023-05-23T15:06:24.752Z,2.83
2023-05-23T15:08:53.367Z,3.10
2023-05-23T15:11:22.808Z,2.70
2023-05-23T15:13:50.894Z,2.80
2023-05-23T15:16:23.497Z,3.00
2023-05-23T15:18:52.709Z,2.60
2023-05-23T15:21:23.670Z,2.50
2023-05-23T15:23:53.985Z,2.33
2023-05-23T15:26:25.007Z,3.05
2023-05-23T15:28:55.153Z,3.13
2023-05-23T15:31:25.051Z,2.70
2023-05-23T15:33:54.014Z,2.60
2023-05-23T15:36:27.318Z,2.95
2023-05-23T15:39:04.134Z,3.13
2023-05-23T15:41:33.542Z,3.00
2023-05-23T15:44:02.607Z,3.30
2023-05-23T15:46:35.270Z,3.30
2023-05-23T15:49:21.587Z,3.80
2023-05-23T15:51:55.697Z,3.47
2023-05-23T15:54:24.725Z,3.95
2023-05-23T15:56:54.129Z,3.53
2023-05-23T15:59:23.265Z,2.95
2023-05-23T16:01:53.463Z,4.03
2023-05-23T16:04:22.889Z,3.53
2023-05-23T16:06:57.188Z,3.60
2023-05-23T16:09:24.824Z,4.15
2023-05-23T16:11:53.018Z,3.92
2023-05-23T16:14:20.292Z,5.45
2023-05-23T16:16:47.632Z,4.05
2023-05-23T16:19:14.899Z,3.08
2023-05-23T16:21:42.277Z,3.05
2023-05-23T16:24:10.176Z,4.50
2023-05-23T16:26:40.614Z,3.45
2023-05-23T16:29:09.357Z,3.88
2023-05-23T16:31:37.802Z,3.40
2023-05-23T16:34:06.442Z,2.97
2023-05-23T16:36:34.945Z,3.45
2023-05-23T16:39:03.226Z,3.20
2023-05-23T16:41:35.782Z,3.75
2023-05-23T16:44:05.310Z,3.80
2023-05-23T16:46:36.148Z,3.58
2023-05-23T16:49:05.391Z,3.50
2023-05-23T16:51:36.531Z,4.28
2023-05-23T16:54:05.335Z,3.42
2023-05-23T16:56:36.513Z,3.92
2023-05-23T16:59:11.093Z,5.22
2023-05-23T17:01:44.680Z,3.70
2023-05-23T17:04:20.477Z,3.55
2023-05-23T17:06:54.416Z,3.92
2023-05-23T17:09:28.405Z,3.70
2023-05-23T17:12:02.281Z,3.28
2023-05-23T17:14:35.511Z,3.97
2023-05-23T17:17:05.547Z,4.30
2023-05-23T17:19:32.949Z,3.90
2023-05-23T17:22:01.258Z,4.35
2023-05-23T17:24:28.829Z,3.85
2023-05-23T17:26:56.078Z,4.53
2023-05-23T17:29:23.398Z,4.32
2023-05-23T17:31:51.194Z,5.40
2023-05-23T17:34:18.747Z,3.83
2023-05-23T17:36:46.149Z,4.38
2023-05-23T17:39:14.913Z,4.47
2023-05-23T17:41:43.234Z,4.70
2023-05-23T17:44:10.521Z,4.50
2023-05-23T17:46:37.804Z,4.53
2023-05-23T17:49:05.066Z,4.20
2023-05-23T17:51:33.566Z,4.63
2023-05-23T17:54:00.975Z,4.20
2023-05-23T17:56:28.227Z,4.57
2023-05-23T17:58:55.402Z,4.72
2023-05-23T18:01:22.744Z,5.10
2023-05-23T18:03:50.119Z,4.70
2023-05-23T18:06:17.419Z,4.63
2023-05-23T18:08:44.594Z,4.68
2023-05-23T18:11:11.869Z,5.18
2023-05-23T18:13:39.072Z,4.43
2023-05-23T18:16:06.273Z,4.82
2023-05-23T18:18:33.706Z,5.07
2023-05-23T18:21:01.195Z,5.15
2023-05-23T18:23:28.370Z,4.75
2023-05-23T18:25:55.640Z,5.50
2023-05-23T18:28:22.933Z,6.32
2023-05-23T18:30:50.246Z,8.00
2023-05-23T18:33:17.623Z,6.82
2023-05-23T18:35:47.019Z,6.07
2023-05-23T18:38:14.371Z,6.03
2023-05-23T18:40:41.944Z,8.57
2023-05-23T18:43:09.321Z,6.53
2023-05-23T18:45:37.182Z,6.68
2023-05-23T18:48:04.509Z,6.40
2023-05-23T18:50:31.817Z,13.45
2023-05-23T18:52:59.118Z,9.82
2023-05-23T18:55:26.370Z,7.38
2023-05-23T18:57:54.104Z,8.55
2023-05-23T19:00:21.936Z,15.63
2023-05-23T19:02:49.413Z,16.08
2023-05-23T19:05:16.766Z,21.75
2023-05-23T19:07:43.999Z,15.02
2023-05-23T19:10:12.772Z,9.55
2023-05-23T19:12:44.591Z,11.85
2023-05-23T19:15:12.251Z,12.43
2023-05-23T19:17:39.522Z,15.23
2023-05-23T19:20:08.501Z,8.43
2023-05-23T19:22:50.339Z,11.93
2023-05-23T19:25:20.976Z,23.13
2023-05-23T19:27:57.344Z,9.88
2023-05-23T19:30:30.844Z,8.80
2023-05-23T19:33:05.055Z,10.70
2023-05-23T19:35:40.248Z,9.48
2023-05-23T19:38:15.247Z,10.48
2023-05-23T19:40:50.089Z,9.82
2023-05-23T19:43:17.944Z,14.02
2023-05-23T19:45:45.253Z,20.92
2023-05-23T19:48:12.898Z,16.85
2023-05-23T19:50:43.473Z,16.05
2023-05-23T19:53:13.367Z,11.75
2023-05-23T19:55:42.580Z,9.10
2023-05-23T19:58:10.170Z,10.38
2023-05-23T20:00:41.191Z,8.95
2023-05-23T20:03:10.782Z,9.35
2023-05-23T20:05:38.120Z,9.45
2023-05-23T20:08:05.435Z,9.10
2023-05-23T20:10:36.415Z,9.50
2023-05-23T20:13:06.914Z,9.65
2023-05-23T20:15:39.865Z,9.18
2023-05-23T20:18:28.683Z,9.60
2023-05-23T20:20:58.196Z,8.52
2023-05-23T20:23:25.567Z,8.40
2023-05-23T20:25:53.221Z,8.55
2023-05-23T20:28:20.640Z,11.70
2023-05-23T20:30:49.171Z,8.30
2023-05-23T20:33:18.692Z,9.15
2023-05-23T20:35:48.655Z,8.88
2023-05-23T20:38:19.419Z,8.18
2023-05-23T20:40:52.456Z,8.52
2023-05-23T20:43:22.941Z,9.13
2023-05-23T20:45:50.725Z,9.95
2023-05-23T20:48:17.980Z,9.48
2023-05-23T20:50:45.762Z,10.55
2023-05-23T20:53:12.989Z,13.57
2023-05-23T20:55:40.554Z,10.50
2023-05-23T20:58:09.011Z,10.20
2023-05-23T21:00:36.146Z,10.05
2023-05-23T21:03:03.522Z,9.63
2023-05-23T21:05:30.861Z,11.23
2023-05-23T21:07:58.132Z,10.73
2023-05-23T21:10:25.374Z,10.80
2023-05-23T21:12:52.772Z,11.15
2023-05-23T21:15:20.321Z,10.25
2023-05-23T21:17:47.587Z,12.70
2023-05-23T21:20:14.825Z,10.73
2023-05-23T21:22:42.146Z,9.15
2023-05-23T21:25:09.590Z,9.13
2023-05-23T21:27:36.741Z,8.50
2023-05-23T21:30:05.195Z,10.00
2023-05-23T21:32:32.533Z,10.25
2023-05-23T21:35:00.462Z,9.25
2023-05-23T21:37:27.825Z,9.75
2023-05-23T21:39:55.054Z,9.98
2023-05-23T21:42:22.493Z,8.45
2023-05-23T21:44:49.742Z,9.73
2023-05-23T21:47:17.057Z,9.30
2023-05-23T21:49:44.225Z,9.27
2023-05-23T21:52:11.650Z,9.95
2023-05-23T21:54:38.921Z,9.00
2023-05-23T21:57:06.283Z,12.05
2023-05-23T21:59:33.499Z,13.77
2023-05-23T22:02:01.130Z,11.57
2023-05-23T22:04:28.539Z,10.73
2023-05-23T22:06:56.086Z,10.20
2023-05-23T22:09:23.296Z,8.77
2023-05-23T22:11:50.832Z,8.73
2023-05-23T22:14:18.148Z,9.52
2023-05-23T22:16:45.623Z,10.98
2023-05-23T22:19:13.225Z,8.90
2023-05-23T22:21:40.409Z,9.90
2023-05-23T22:24:07.778Z,12.60
2023-05-23T22:26:34.871Z,9.23
2023-05-23T22:29:02.324Z,10.98
2023-05-23T22:31:29.621Z,10.48
2023-05-23T22:33:57.108Z,10.20
2023-05-23T22:36:24.515Z,8.52
2023-05-23T22:38:51.796Z,9.48
2023-05-23T22:41:19.275Z,9.23
2023-05-23T22:43:47.148Z,10.68
2023-05-23T22:46:14.990Z,9.68
2023-05-23T22:48:42.383Z,9.43
2023-05-23T22:51:09.901Z,10.43
2023-05-23T22:53:37.075Z,9.77
2023-05-23T22:56:04.503Z,10.00
2023-05-23T22:58:31.783Z,9.82
2023-05-23T23:00:59.310Z,17.45
2023-05-23T23:03:26.973Z,14.60
2023-05-23T23:05:54.789Z,12.68
2023-05-23T23:08:21.988Z,12.20
2023-05-23T23:10:49.196Z,12.38
2023-05-23T23:13:16.641Z,12.13
2023-05-23T23:15:44.145Z,17.50
2023-05-23T23:18:13.906Z,9.77
2023-05-23T23:20:41.698Z,10.23
2023-05-23T23:23:09.074Z,10.57
2023-05-23T23:25:36.659Z,11.95
2023-05-23T23:28:04.269Z,10.35
2023-05-23T23:30:31.531Z,12.73
2023-05-23T23:32:58.773Z,11.73
2023-05-23T23:35:26.218Z,11.10
2023-05-23T23:37:53.475Z,12.23
2023-05-23T23:40:20.747Z,11.93
2023-05-23T23:42:48.064Z,11.70
2023-05-23T23:45:18.293Z,11.20
2023-05-23T23:47:46.607Z,12.90
2023-05-23T23:50:14.175Z,12.70
2023-05-23T23:52:41.787Z,10.98
2023-05-23T23:55:09.292Z,10.18
2023-05-23T23:57:36.465Z,10.35
